createdAt,value
2022-10-13T00:00:14.080Z,98811.37
2022-10-13T00:02:42.479Z,98806.47
2022-10-13T00:05:09.662Z,98807.22
2022-10-13T00:07:36.494Z,98806.81
2022-10-13T00:10:03.619Z,98811.41
2022-10-13T00:12:30.460Z,98805.66
2022-10-13T00:14:58.396Z,98811.09
2022-10-13T00:17:25.216Z,98810.59
2022-10-13T00:19:52.074Z,98812.37
2022-10-13T00:22:19.263Z,98807.62
2022-10-13T00:24:51.399Z,98810.88
2022-10-13T00:27:18.268Z,98803.69
2022-10-13T00:29:45.177Z,98806.50
2022-10-13T00:32:12.203Z,98805.88
2022-10-13T00:34:39.409Z,98805.37
2022-10-13T00:37:06.501Z,98808.25
2022-10-13T00:39:33.351Z,98801.00
2022-10-13T00:42:00.739Z,98802.13
2022-10-13T00:44:59.434Z,98801.03
2022-10-13T00:47:33.997Z,98807.56
2022-10-13T00:50:01.633Z,98798.25
2022-10-13T00:52:28.760Z,98804.91
2022-10-13T00:54:56.564Z,98803.66
2022-10-13T00:57:23.759Z,98798.47
2022-10-13T00:59:50.988Z,98795.63
2022-10-13T01:02:18.192Z,98797.22
2022-10-13T01:04:47.043Z,98798.25
2022-10-13T01:07:15.623Z,98795.50
2022-10-13T01:09:42.799Z,98793.06
2022-10-13T01:12:34.623Z,98793.22
2022-10-13T01:15:18.008Z,98794.31
2022-10-13T01:17:54.218Z,98792.34
2022-10-13T01:20:24.184Z,98798.53
2022-10-13T01:23:06.740Z,98798.31
2022-10-13T01:26:25.891Z,98794.06
2022-10-13T01:29:05.020Z,98797.09
2022-10-13T01:31:45.989Z,98782.03
2022-10-13T01:34:24.221Z,98785.59
2022-10-13T01:36:55.972Z,98780.38
2022-10-13T01:39:28.596Z,98780.78
2022-10-13T01:42:01.276Z,98785.22
2022-10-13T01:44:36.804Z,98789.44
2022-10-13T01:47:04.350Z,98790.91
2022-10-13T01:49:35.341Z,98790.22
2022-10-13T01:52:08.635Z,98789.75
2022-10-13T01:54:35.543Z,98785.78
2022-10-13T01:57:02.555Z,98783.41
2022-10-13T01:59:32.933Z,98784.69
2022-10-13T02:02:21.788Z,98776.72
2022-10-13T02:05:09.171Z,98779.41
2022-10-13T02:07:53.266Z,98780.25
2022-10-13T02:10:28.981Z,98786.78
2022-10-13T02:13:06.848Z,98776.88
2022-10-13T02:15:46.633Z,98774.34
2022-10-13T02:18:15.540Z,98777.53
2022-10-13T02:20:42.790Z,98772.50
2022-10-13T02:23:13.651Z,98767.66
2022-10-13T02:25:41.084Z,98764.22
2022-10-13T02:28:08.176Z,98761.88
2022-10-13T02:30:35.611Z,98771.59
2022-10-13T02:33:03.071Z,98767.44
2022-10-13T02:35:31.170Z,98765.44
2022-10-13T02:37:58.050Z,98770.53
2022-10-13T02:40:25.395Z,98762.44
2022-10-13T02:42:52.261Z,98769.16
2022-10-13T02:45:19.435Z,98756.88
2022-10-13T02:47:46.469Z,98759.88
2022-10-13T02:50:13.399Z,98757.56
2022-10-13T02:52:40.294Z,98755.72
2022-10-13T02:55:07.943Z,98754.50
2022-10-13T02:57:34.841Z,98758.75
2022-10-13T03:00:02.029Z,98754.94
2022-10-13T03:02:28.902Z,98763.56
2022-10-13T03:04:56.222Z,98763.22
2022-10-13T03:07:23.121Z,98764.47
2022-10-13T03:09:50.098Z,98764.56
2022-10-13T03:12:17.317Z,98761.13
2022-10-13T03:14:44.313Z,98763.16
2022-10-13T03:17:13.513Z,98763.78
2022-10-13T03:19:40.594Z,98765.91
2022-10-13T03:22:07.447Z,98760.31
2022-10-13T03:24:34.316Z,98760.31
2022-10-13T03:27:01.168Z,98764.66
2022-10-13T03:29:28.038Z,98763.59
2022-10-13T03:31:54.887Z,98765.59
2022-10-13T03:34:22.130Z,98764.50
2022-10-13T03:36:49.013Z,98762.66
2022-10-13T03:39:15.896Z,98760.47
2022-10-13T03:41:43.149Z,98758.44
2022-10-13T03:44:13.481Z,98757.19
2022-10-13T03:46:40.709Z,98750.41
2022-10-13T03:49:07.605Z,98749.09
2022-10-13T03:51:34.436Z,98745.41
2022-10-13T03:54:01.277Z,98747.69
2022-10-13T03:56:28.571Z,98750.16
2022-10-13T03:58:57.025Z,98748.25
2022-10-13T04:01:26.012Z,98752.72
2022-10-13T04:03:54.807Z,98754.56
2022-10-13T04:06:22.535Z,98745.97
2022-10-13T04:08:49.545Z,98752.41
2022-10-13T04:11:17.406Z,98752.22
2022-10-13T04:13:45.039Z,98755.84
2022-10-13T04:16:21.843Z,98754.50
2022-10-13T04:18:57.047Z,98748.47
2022-10-13T04:21:24.522Z,98741.13
2022-10-13T04:23:51.537Z,98742.25
2022-10-13T04:26:20.774Z,98739.66
2022-10-13T04:28:51.565Z,98740.62
2022-10-13T04:31:18.948Z,98738.00
2022-10-13T04:33:46.017Z,98738.00
2022-10-13T04:36:14.412Z,98740.03
2022-10-13T04:38:42.882Z,98741.78
2022-10-13T04:41:10.743Z,98740.62
2022-10-13T04:43:37.620Z,98742.03
2022-10-13T04:46:15.399Z,98745.25
2022-10-13T04:48:42.514Z,98733.16
2022-10-13T04:51:11.986Z,98750.63
2022-10-13T04:53:39.072Z,98746.53
2022-10-13T04:56:08.689Z,98744.66
2022-10-13T04:58:36.517Z,98742.87
2022-10-13T05:01:06.077Z,98737.72
2022-10-13T05:03:33.833Z,98742.34
2022-10-13T05:06:01.045Z,98749.09
2022-10-13T05:08:27.996Z,98744.28
2022-10-13T05:10:56.825Z,98739.78
2022-10-13T05:13:25.315Z,98734.00
2022-10-13T05:15:52.339Z,98733.31
2022-10-13T05:18:19.252Z,98738.75
2022-10-13T05:20:46.930Z,98745.06
2022-10-13T05:23:14.993Z,98745.25
2022-10-13T05:25:42.015Z,98741.56
2022-10-13T05:28:08.993Z,98745.28
2022-10-13T05:30:35.883Z,98744.88
2022-10-13T05:33:02.784Z,98738.44
2022-10-13T05:35:29.652Z,98750.97
2022-10-13T05:37:56.496Z,98748.63
2022-10-13T05:40:23.439Z,98752.00
2022-10-13T05:42:51.354Z,98747.38
2022-10-13T05:45:19.097Z,98747.53
2022-10-13T05:47:46.072Z,98751.69
2022-10-13T05:50:13.042Z,98748.84
2022-10-13T05:52:40.109Z,98743.41
2022-10-13T05:55:09.300Z,98750.91
2022-10-13T05:57:41.227Z,98755.50
2022-10-13T06:00:10.339Z,98755.53
2022-10-13T06:02:52.774Z,98760.59
2022-10-13T06:05:21.767Z,98763.06
2022-10-13T06:07:48.632Z,98762.16
2022-10-13T06:10:15.803Z,98760.56
2022-10-13T06:12:42.711Z,98761.69
2022-10-13T06:15:10.127Z,98768.38
2022-10-13T06:17:38.598Z,98773.41
2022-10-13T06:20:07.066Z,98776.00
2022-10-13T06:22:35.299Z,98778.12
2022-10-13T06:25:02.691Z,98774.94
2022-10-13T06:27:29.698Z,98767.19
2022-10-13T06:29:56.923Z,98775.50
2022-10-13T06:32:24.225Z,98774.59
2022-10-13T06:34:51.205Z,98775.34
2022-10-13T06:37:18.010Z,98773.91
2022-10-13T06:39:44.843Z,98778.84
2022-10-13T06:42:11.707Z,98780.72
2022-10-13T06:44:38.627Z,98781.72
2022-10-13T06:47:05.611Z,98788.38
2022-10-13T06:49:32.447Z,98787.22
2022-10-13T06:51:59.490Z,98795.69
2022-10-13T06:54:26.345Z,98786.00
2022-10-13T06:56:53.255Z,98792.25
2022-10-13T06:59:20.301Z,98787.56
2022-10-13T07:01:48.752Z,98788.56
2022-10-13T07:04:15.811Z,98784.81
2022-10-13T07:06:42.633Z,98792.38
2022-10-13T07:09:09.559Z,98794.66
2022-10-13T07:11:36.876Z,98789.94
2022-10-13T07:14:03.805Z,98788.25
2022-10-13T07:16:31.010Z,98794.03
2022-10-13T07:18:57.857Z,98788.72
2022-10-13T07:21:24.927Z,98797.72
2022-10-13T07:23:51.759Z,98791.13
2022-10-13T07:26:18.682Z,98791.94
2022-10-13T07:28:45.650Z,98793.75
2022-10-13T07:31:15.056Z,98787.22
2022-10-13T07:33:43.882Z,98790.59
2022-10-13T07:36:11.524Z,98786.03
2022-10-13T07:38:38.567Z,98786.94
2022-10-13T07:41:06.986Z,98782.69
2022-10-13T07:43:34.123Z,98778.41
2022-10-13T07:46:02.340Z,98771.84
2022-10-13T07:48:29.204Z,98770.84
2022-10-13T07:50:56.051Z,98781.66
2022-10-13T07:53:22.881Z,98769.09
2022-10-13T07:55:49.965Z,98777.28
2022-10-13T07:58:16.897Z,98782.03
2022-10-13T08:00:43.738Z,98766.19
2022-10-13T08:03:10.695Z,98773.16
2022-10-13T08:05:39.449Z,98773.22
2022-10-13T08:08:06.357Z,98769.94
2022-10-13T08:10:33.210Z,98763.25
2022-10-13T08:13:00.050Z,98764.63
2022-10-13T08:15:26.944Z,98765.94
2022-10-13T08:17:53.858Z,98765.53
2022-10-13T08:20:20.713Z,98754.44
2022-10-13T08:22:47.633Z,98759.44
2022-10-13T08:25:14.603Z,98758.59
2022-10-13T08:27:51.157Z,98753.56
2022-10-13T08:30:19.391Z,98748.06
2022-10-13T08:32:46.400Z,98753.31
2022-10-13T08:35:13.527Z,98755.56
2022-10-13T08:37:40.381Z,98749.53
2022-10-13T08:40:08.504Z,98752.41
2022-10-13T08:42:35.471Z,98746.41
2022-10-13T08:48:00.390Z,98758.16
2022-10-13T08:50:30.472Z,98759.37
2022-10-13T08:53:12.645Z,98751.75
2022-10-13T08:55:44.995Z,98750.37
2022-10-13T08:58:21.985Z,98745.75
2022-10-13T09:00:48.814Z,98753.19
2022-10-13T09:03:28.143Z,98750.03
2022-10-13T09:06:09.864Z,98742.41
2022-10-13T09:08:58.715Z,98744.69
2022-10-13T09:11:34.669Z,98741.88
2022-10-13T09:14:04.668Z,98748.75
2022-10-13T09:16:43.175Z,98739.69
2022-10-13T09:19:24.042Z,98730.94
2022-10-13T09:21:53.049Z,98741.22
2022-10-13T09:24:22.121Z,98735.16
2022-10-13T09:26:51.437Z,98742.13
2022-10-13T09:29:25.954Z,98741.88
2022-10-13T09:32:08.756Z,98737.94
2022-10-13T09:34:35.652Z,98730.88
2022-10-13T09:37:05.661Z,98733.63
2022-10-13T09:39:33.428Z,98733.28
2022-10-13T09:42:19.862Z,98731.44
2022-10-13T09:44:47.561Z,98732.84
2022-10-13T09:47:26.738Z,98723.75
2022-10-13T09:50:15.948Z,98723.41
2022-10-13T09:52:43.630Z,98728.59
2022-10-13T09:55:34.540Z,98714.81
2022-10-13T09:58:25.797Z,98711.13
2022-10-13T10:00:53.057Z,98712.09
2022-10-13T10:03:24.122Z,98707.56
2022-10-13T10:06:00.272Z,98713.81
2022-10-13T10:09:01.463Z,98710.81
2022-10-13T10:11:42.027Z,98712.97
2022-10-13T10:14:34.081Z,98716.53
2022-10-13T10:17:33.455Z,98724.22
2022-10-13T10:20:24.466Z,98706.09
2022-10-13T10:23:38.179Z,98705.63
2022-10-13T10:26:14.043Z,98707.13
2022-10-13T10:29:00.394Z,98707.16
2022-10-13T10:31:57.131Z,98706.53
2022-10-13T10:34:29.336Z,98693.34
2022-10-13T10:37:26.555Z,98695.50
2022-10-13T10:40:00.268Z,98691.78
2022-10-13T10:42:52.130Z,98694.44
2022-10-13T10:45:23.489Z,98691.03
2022-10-13T10:47:53.231Z,98681.69
2022-10-13T10:50:21.065Z,98677.72
2022-10-13T10:53:01.369Z,98678.81
2022-10-13T10:55:51.660Z,98674.84
2022-10-13T10:58:18.703Z,98681.94
2022-10-13T11:00:55.717Z,98680.25
2022-10-13T11:03:25.458Z,98679.16
2022-10-13T11:06:03.590Z,98667.78
2022-10-13T11:08:42.443Z,98671.47
2022-10-13T11:11:28.603Z,98662.66
2022-10-13T11:14:01.303Z,98665.56
2022-10-13T11:16:34.885Z,98652.78
2022-10-13T11:19:20.805Z,98651.41
2022-10-13T11:21:59.890Z,98654.03
2022-10-13T11:24:41.587Z,98641.66
2022-10-13T11:27:08.362Z,98656.28
2022-10-13T11:30:01.238Z,98633.34
2022-10-13T11:32:28.303Z,98640.66
2022-10-13T11:34:57.963Z,98640.94
2022-10-13T11:37:29.315Z,98633.22
2022-10-13T11:40:09.549Z,98634.88
2022-10-13T11:42:55.564Z,98635.84
2022-10-13T11:45:25.287Z,98633.31
2022-10-13T11:48:05.266Z,98631.75
2022-10-13T11:51:12.540Z,98615.16
2022-10-13T11:53:42.239Z,98622.09
2022-10-13T11:56:20.270Z,98622.13
2022-10-13T11:58:47.110Z,98614.19
2022-10-13T12:01:16.286Z,98612.22
2022-10-13T12:03:45.074Z,98601.34
2022-10-13T12:06:21.134Z,98603.47
2022-10-13T12:08:52.054Z,98595.38
2022-10-13T12:11:30.632Z,98600.63
2022-10-13T12:13:57.862Z,98598.47
2022-10-13T12:16:24.866Z,98587.91
2022-10-13T12:18:51.796Z,98590.03
2022-10-13T12:21:22.490Z,98585.03
2022-10-13T12:23:50.990Z,98580.34
2022-10-13T12:26:22.920Z,98586.13
2022-10-13T12:28:56.266Z,98584.09
2022-10-13T12:31:28.503Z,98581.19
2022-10-13T12:34:04.929Z,98583.63
2022-10-13T12:36:33.753Z,98576.16
2022-10-13T12:39:08.360Z,98578.59
2022-10-13T12:41:36.904Z,98570.47
2022-10-13T12:44:06.748Z,98570.34
2022-10-13T12:46:42.999Z,98573.63
2022-10-13T12:51:58.836Z,98567.81
2022-10-13T12:54:31.000Z,98573.31
2022-10-13T12:57:16.045Z,98564.97
2022-10-13T12:59:43.293Z,98565.41
2022-10-13T13:02:36.669Z,98562.88
2022-10-13T13:05:37.462Z,98546.50
2022-10-13T13:08:06.141Z,98549.22
2022-10-13T13:10:35.219Z,98553.28
2022-10-13T13:13:23.058Z,98544.78
2022-10-13T13:15:50.142Z,98549.66
2022-10-13T13:18:36.810Z,98546.63
2022-10-13T13:21:08.433Z,98542.00
2022-10-13T13:23:36.136Z,98541.72
2022-10-13T13:26:23.689Z,98543.09
2022-10-13T13:28:54.292Z,98535.69
2022-10-13T13:31:23.673Z,98544.78
2022-10-13T13:33:50.536Z,98533.47
2022-10-13T13:36:25.253Z,98527.66
2022-10-13T13:38:53.434Z,98522.28
2022-10-13T13:41:20.709Z,98521.06
2022-10-13T13:43:47.851Z,98518.00
2022-10-13T13:46:20.524Z,98520.38
2022-10-13T13:48:47.417Z,98523.03
2022-10-13T13:51:14.381Z,98514.94
2022-10-13T13:53:41.292Z,98509.28
2022-10-13T13:56:13.929Z,98503.81
2022-10-13T13:58:40.796Z,98503.16
2022-10-13T14:01:08.646Z,98508.59
2022-10-13T14:03:35.507Z,98512.25
2022-10-13T14:06:02.399Z,98515.00
2022-10-13T14:08:33.230Z,98515.34
2022-10-13T14:11:00.104Z,98513.97
2022-10-13T14:13:27.026Z,98518.62
2022-10-13T14:16:00.266Z,98509.81
2022-10-13T14:18:27.269Z,98514.81
2022-10-13T14:20:54.328Z,98521.97
2022-10-13T14:23:21.439Z,98514.37
2022-10-13T14:25:48.315Z,98513.16
2022-10-13T14:28:18.227Z,98500.53
2022-10-13T14:30:45.464Z,98495.41
2022-10-13T14:33:12.408Z,98503.00
2022-10-13T14:35:40.271Z,98504.38
2022-10-13T14:38:07.117Z,98503.31
2022-10-13T14:40:33.937Z,98506.22
2022-10-13T14:43:00.916Z,98498.31
2022-10-13T14:45:27.788Z,98503.41
2022-10-13T14:47:54.654Z,98500.69
2022-10-13T14:50:21.519Z,98499.25
2022-10-13T14:52:48.379Z,98499.34
2022-10-13T14:55:15.275Z,98499.13
2022-10-13T14:57:42.111Z,98499.00
2022-10-13T15:00:10.919Z,98499.87
2022-10-13T15:02:37.760Z,98499.22
2022-10-13T15:05:06.196Z,98497.53
2022-10-13T15:07:33.073Z,98505.59
2022-10-13T15:10:05.514Z,98506.47
2022-10-13T15:12:33.492Z,98506.56
2022-10-13T15:15:00.365Z,98498.78
2022-10-13T15:17:28.125Z,98498.50
2022-10-13T15:19:55.406Z,98494.25
2022-10-13T15:22:22.570Z,98493.03
2022-10-13T15:24:49.792Z,98485.41
2022-10-13T15:27:16.917Z,98485.78
2022-10-13T15:29:43.765Z,98483.34
2022-10-13T15:32:13.674Z,98485.44
2022-10-13T15:34:40.629Z,98478.16
2022-10-13T15:37:07.757Z,98477.19
2022-10-13T15:39:34.672Z,98473.69
2022-10-13T15:42:01.714Z,98475.09
2022-10-13T15:44:30.893Z,98479.81
2022-10-13T15:47:07.778Z,98482.56
2022-10-13T15:49:39.635Z,98477.16
2022-10-13T15:52:06.558Z,98474.69
2022-10-13T15:54:33.680Z,98472.88
2022-10-13T15:57:00.534Z,98478.72
2022-10-13T15:59:27.379Z,98473.91
2022-10-13T16:01:54.230Z,98469.78
2022-10-13T16:04:21.099Z,98482.28
2022-10-13T16:06:47.968Z,98479.97
2022-10-13T16:09:14.825Z,98470.44
2022-10-13T16:11:41.818Z,98472.81
2022-10-13T16:14:09.143Z,98479.56
2022-10-13T16:16:35.963Z,98483.91
2022-10-13T16:19:02.828Z,98481.66
2022-10-13T16:21:29.684Z,98480.94
2022-10-13T16:23:56.943Z,98481.66
2022-10-13T16:26:23.866Z,98476.28
2022-10-13T16:28:54.926Z,98485.56
2022-10-13T16:31:21.798Z,98476.59
2022-10-13T16:33:48.995Z,98479.72
2022-10-13T16:36:18.499Z,98480.66
2022-10-13T16:38:46.652Z,98484.94
2022-10-13T16:41:16.268Z,98483.59
2022-10-13T16:43:44.110Z,98482.34
2022-10-13T16:46:15.923Z,98483.09
2022-10-13T16:48:44.515Z,98480.12
2022-10-13T16:51:16.737Z,98482.78
2022-10-13T16:53:43.731Z,98477.25
2022-10-13T16:56:15.640Z,98478.19
2022-10-13T16:58:45.368Z,98480.59
2022-10-13T17:01:12.706Z,98483.47
2022-10-13T17:03:40.025Z,98484.09
2022-10-13T17:06:07.402Z,98490.16
2022-10-13T17:08:34.238Z,98488.38
2022-10-13T17:11:01.561Z,98483.72
2022-10-13T17:13:28.542Z,98488.81
2022-10-13T17:15:57.142Z,98494.19
2022-10-13T17:18:24.868Z,98487.97
2022-10-13T17:20:53.532Z,98493.38
2022-10-13T17:23:20.911Z,98488.88
2022-10-13T17:25:48.162Z,98487.81
2022-10-13T17:28:15.492Z,98483.56
2022-10-13T17:30:42.458Z,98484.97
2022-10-13T17:33:09.495Z,98482.66
2022-10-13T17:35:36.338Z,98482.94
2022-10-13T17:38:03.270Z,98484.87
2022-10-13T17:40:33.837Z,98478.19
2022-10-13T17:43:00.724Z,98478.31
2022-10-13T17:45:27.943Z,98484.69
2022-10-13T17:47:58.597Z,98484.22
2022-10-13T17:50:26.462Z,98485.19
2022-10-13T17:52:53.778Z,98477.53
2022-10-13T17:55:20.653Z,98475.09
2022-10-13T17:57:47.460Z,98483.47
2022-10-13T18:00:15.051Z,98465.94
2022-10-13T18:02:41.888Z,98472.09
2022-10-13T18:05:08.989Z,98466.75
2022-10-13T18:07:36.179Z,98463.81
2022-10-13T18:10:05.097Z,98464.31
2022-10-13T18:12:32.497Z,98469.94
2022-10-13T18:14:59.354Z,98473.09
2022-10-13T18:17:26.158Z,98462.78
2022-10-13T18:19:53.566Z,98458.59
2022-10-13T18:22:20.473Z,98464.41
2022-10-13T18:24:47.602Z,98469.94
2022-10-13T18:27:14.821Z,98461.22
2022-10-13T18:29:42.693Z,98461.75
2022-10-13T18:32:09.558Z,98463.50
2022-10-13T18:34:36.453Z,98464.03
2022-10-13T18:37:05.701Z,98468.84
2022-10-13T18:39:34.545Z,98465.06
2022-10-13T18:42:01.671Z,98472.84
2022-10-13T18:44:28.723Z,98463.72
2022-10-13T18:46:56.661Z,98460.91
2022-10-13T18:49:31.079Z,98457.72
2022-10-13T18:51:59.341Z,98452.47
2022-10-13T18:54:26.951Z,98456.31
2022-10-13T18:56:53.843Z,98453.84
2022-10-13T18:59:21.014Z,98451.84
2022-10-13T19:01:47.946Z,98450.75
2022-10-13T19:04:16.874Z,98461.00
2022-10-13T19:06:44.684Z,98445.72
2022-10-13T19:09:15.076Z,98449.69
2022-10-13T19:11:42.333Z,98444.31
2022-10-13T19:14:11.539Z,98440.44
2022-10-13T19:16:40.156Z,98443.53
2022-10-13T19:19:09.389Z,98442.03
2022-10-13T19:21:37.396Z,98446.28
2022-10-13T19:24:04.523Z,98445.94
2022-10-13T19:26:33.122Z,98441.09
2022-10-13T19:29:03.488Z,98440.84
2022-10-13T19:31:31.728Z,98444.09
2022-10-13T19:33:59.561Z,98441.75
2022-10-13T19:36:33.414Z,98444.97
2022-10-13T19:39:01.020Z,98448.63
2022-10-13T19:41:30.924Z,98452.34
2022-10-13T19:43:58.281Z,98450.84
2022-10-13T19:46:25.393Z,98449.75
2022-10-13T19:48:53.390Z,98456.16
2022-10-13T19:51:20.259Z,98449.22
2022-10-13T19:53:47.166Z,98458.97
2022-10-13T19:56:21.651Z,98454.94
2022-10-13T19:58:48.498Z,98460.72
2022-10-13T20:01:15.402Z,98461.63
2022-10-13T20:03:42.299Z,98459.50
2022-10-13T20:06:09.582Z,98463.00
2022-10-13T20:08:36.809Z,98478.41
2022-10-13T20:11:12.012Z,98468.22
2022-10-13T20:13:38.875Z,98463.91
2022-10-13T20:16:07.505Z,98470.34
2022-10-13T20:18:34.953Z,98470.44
2022-10-13T20:21:03.698Z,98469.56
2022-10-13T20:23:31.539Z,98471.53
2022-10-13T20:26:02.929Z,98477.22
2022-10-13T20:28:29.792Z,98481.66
2022-10-13T20:30:56.662Z,98472.28
2022-10-13T20:33:23.648Z,98474.00
2022-10-13T20:35:50.811Z,98463.50
2022-10-13T20:38:18.413Z,98468.47
2022-10-13T20:40:45.309Z,98471.06
2022-10-13T20:43:12.185Z,98473.22
2022-10-13T20:45:39.022Z,98469.87
2022-10-13T20:48:06.013Z,98467.59
2022-10-13T20:50:32.834Z,98455.78
2022-10-13T20:52:59.687Z,98480.69
2022-10-13T20:55:26.593Z,98468.87
2022-10-13T20:57:53.461Z,98465.25
2022-10-13T21:00:20.443Z,98473.59
2022-10-13T21:02:48.233Z,98472.16
2022-10-13T21:05:15.838Z,98474.16
2022-10-13T21:07:42.822Z,98468.56
2022-10-13T21:10:10.119Z,98469.31
2022-10-13T21:12:37.006Z,98469.31
2022-10-13T21:15:03.992Z,98465.62
2022-10-13T21:17:30.877Z,98460.44
2022-10-13T21:19:58.554Z,98461.00
2022-10-13T21:22:25.490Z,98460.25
2022-10-13T21:24:53.329Z,98452.44
2022-10-13T21:27:20.351Z,98452.75
2022-10-13T21:29:47.299Z,98452.69
2022-10-13T21:32:14.140Z,98453.25
2022-10-13T21:34:40.979Z,98446.13
2022-10-13T21:37:08.319Z,98445.53
2022-10-13T21:39:35.189Z,98445.06
2022-10-13T21:42:02.117Z,98439.22
2022-10-13T21:44:31.028Z,98435.69
2022-10-13T21:46:57.906Z,98441.75
2022-10-13T21:49:24.754Z,98432.75
2022-10-13T21:51:51.692Z,98431.91
2022-10-13T21:54:18.559Z,98431.94
2022-10-13T21:56:45.349Z,98434.12
2022-10-13T21:59:13.102Z,98437.53
2022-10-13T22:01:40.129Z,98424.34
2022-10-13T22:04:07.054Z,98432.16
2022-10-13T22:06:34.471Z,98431.50
2022-10-13T22:09:03.545Z,98425.09
2022-10-13T22:11:33.075Z,98431.75
2022-10-13T22:14:00.229Z,98424.75
2022-10-13T22:16:30.452Z,98425.59
2022-10-13T22:18:58.258Z,98425.75
2022-10-13T22:21:27.846Z,98428.69
2022-10-13T22:24:03.148Z,98419.66
2022-10-13T22:26:32.548Z,98417.53
2022-10-13T22:29:01.061Z,98409.81
2022-10-13T22:31:28.202Z,98412.50
2022-10-13T22:33:55.467Z,98405.06
2022-10-13T22:36:23.693Z,98413.09
2022-10-13T22:38:51.377Z,98408.22
2022-10-13T22:41:19.330Z,98416.44
2022-10-13T22:43:53.005Z,98412.09
2022-10-13T22:46:21.690Z,98411.75
2022-10-13T22:48:48.725Z,98413.66
2022-10-13T22:51:18.220Z,98415.44
2022-10-13T22:53:45.431Z,98415.87
2022-10-13T22:56:21.638Z,98413.72
2022-10-13T22:58:59.769Z,98408.91
2022-10-13T23:01:27.214Z,98404.28
2022-10-13T23:03:56.554Z,98407.56
2022-10-13T23:06:26.081Z,98413.06
2022-10-13T23:08:52.967Z,98406.09
2022-10-13T23:11:20.370Z,98413.47
2022-10-13T23:13:47.614Z,98408.16
2022-10-13T23:16:17.322Z,98405.31
2022-10-13T23:18:44.196Z,98407.31
2022-10-13T23:21:13.234Z,98407.31
2022-10-13T23:23:40.122Z,98408.34
2022-10-13T23:26:14.001Z,98423.31
2022-10-13T23:28:41.271Z,98409.19
2022-10-13T23:31:13.552Z,98409.13
2022-10-13T23:33:40.406Z,98406.53
2022-10-13T23:36:08.419Z,98420.03
2022-10-13T23:38:35.751Z,98410.66
2022-10-13T23:41:07.879Z,98409.00
2022-10-13T23:43:34.981Z,98408.91
2022-10-13T23:46:02.071Z,98409.28
2022-10-13T23:48:28.942Z,98407.41
2022-10-13T23:50:56.068Z,98400.06
2022-10-13T23:53:23.276Z,98398.94
2022-10-13T23:55:50.267Z,98405.38
2022-10-13T23:58:17.110Z,98401.94
